createdAt,value
2017-01-20T00:00:32.615Z,0
2017-01-20T00:01:32.581Z,0
2017-01-20T00:02:32.555Z,0
2017-01-20T00:03:32.542Z,0
2017-01-20T00:04:32.512Z,0
2017-01-20T00:05:32.477Z,0
2017-01-20T00:06:32.449Z,0
2017-01-20T00:07:32.447Z,0
2017-01-20T00:08:32.399Z,0
2017-01-20T00:09:32.369Z,0
2017-01-20T00:10:32.358Z,0
2017-01-20T00:11:32.322Z,0
2017-01-20T00:12:32.298Z,0
2017-01-20T00:13:32.271Z,0
2017-01-20T00:14:32.263Z,0
2017-01-20T00:15:32.228Z,0
2017-01-20T00:16:32.192Z,0
2017-01-20T00:17:32.180Z,0
2017-01-20T00:18:32.171Z,0
2017-01-20T00:19:32.111Z,0
2017-01-20T00:20:32.095Z,0
2017-01-20T00:21:32.064Z,0
2017-01-20T00:22:32.043Z,0
2017-01-20T00:23:32.024Z,0
2017-01-20T00:24:32.001Z,0
2017-01-20T00:25:32.002Z,0
2017-01-20T00:26:31.947Z,0
2017-01-20T00:27:31.938Z,0
2017-01-20T00:28:31.883Z,0
2017-01-20T00:29:31.866Z,0
2017-01-20T00:30:31.829Z,0
2017-01-20T00:31:31.816Z,0
2017-01-20T00:32:31.784Z,0
2017-01-20T00:33:31.778Z,0
2017-01-20T00:34:32.134Z,0
2017-01-20T00:35:31.707Z,0
2017-01-20T00:36:31.680Z,0
2017-01-20T00:37:31.661Z,0
2017-01-20T00:38:31.688Z,0
2017-01-20T00:39:31.599Z,0
2017-01-20T00:40:31.587Z,0
2017-01-20T00:41:31.551Z,0
2017-01-20T00:42:31.925Z,0
2017-01-20T00:43:31.571Z,0
2017-01-20T00:44:31.472Z,0
2017-01-20T00:45:31.453Z,0
2017-01-20T00:46:31.443Z,0
2017-01-20T00:47:31.408Z,0
2017-01-20T00:48:31.392Z,0
2017-01-20T00:49:31.349Z,0
2017-01-20T00:50:31.327Z,0
2017-01-20T00:51:31.294Z,0
2017-01-20T00:52:31.265Z,0
2017-01-20T00:53:31.241Z,0
2017-01-20T00:54:31.217Z,0
2017-01-20T00:55:31.197Z,0
2017-01-20T00:56:31.192Z,0
2017-01-20T00:57:31.144Z,0
2017-01-20T00:58:31.162Z,0
2017-01-20T00:59:31.088Z,0
2017-01-20T01:00:31.059Z,0
2017-01-20T01:01:31.039Z,0
2017-01-20T01:02:31.013Z,0
2017-01-20T01:03:30.984Z,0
2017-01-20T01:04:30.953Z,0
2017-01-20T01:05:30.936Z,0
2017-01-20T01:06:31.302Z,0
2017-01-20T01:07:30.888Z,0
2017-01-20T01:08:30.860Z,0
2017-01-20T01:09:30.828Z,0
2017-01-20T01:10:31.195Z,0
2017-01-20T01:11:30.776Z,0
2017-01-20T01:12:30.749Z,0
2017-01-20T01:13:31.129Z,0
2017-01-20T01:14:30.704Z,0
2017-01-20T01:15:30.671Z,0
2017-01-20T01:16:30.694Z,0
2017-01-20T01:17:30.624Z,0
2017-01-20T01:18:30.599Z,0
2017-01-20T01:19:30.557Z,0
2017-01-20T01:20:30.541Z,0
2017-01-20T01:21:30.568Z,0
2017-01-20T01:22:30.891Z,0
2017-01-20T01:23:30.472Z,0
2017-01-20T01:24:30.437Z,0
2017-01-20T01:25:30.858Z,0
2017-01-20T01:26:30.404Z,0
2017-01-20T01:27:30.361Z,0
2017-01-20T01:28:30.724Z,0
2017-01-20T01:29:30.306Z,0
2017-01-20T01:30:30.287Z,0
2017-01-20T01:31:30.302Z,0
2017-01-20T01:32:30.241Z,0
2017-01-20T01:33:30.215Z,0
2017-01-20T01:34:30.173Z,0
2017-01-20T01:35:30.163Z,0
2017-01-20T01:36:30.139Z,0
2017-01-20T01:37:30.501Z,0
2017-01-20T01:38:30.076Z,0
2017-01-20T01:39:30.068Z,0
2017-01-20T01:40:30.017Z,0
2017-01-20T01:41:29.999Z,0
2017-01-20T01:42:29.983Z,0
2017-01-20T01:43:29.949Z,0
2017-01-20T01:44:29.920Z,0
2017-01-20T01:45:29.895Z,0
2017-01-20T01:46:29.867Z,0
2017-01-20T01:47:29.843Z,0
2017-01-20T01:48:30.021Z,0
2017-01-20T01:49:30.180Z,0
2017-01-20T01:50:29.773Z,0
2017-01-20T01:51:29.765Z,0
2017-01-20T01:52:29.717Z,0
2017-01-20T01:53:29.689Z,0
2017-01-20T01:54:29.651Z,0
2017-01-20T01:55:29.678Z,0
2017-01-20T01:56:29.607Z,0
2017-01-20T01:57:29.577Z,0
2017-01-20T01:58:29.553Z,0
2017-01-20T01:59:29.532Z,0
2017-01-20T02:00:29.927Z,0
2017-01-20T02:01:29.481Z,0
2017-01-20T02:02:29.451Z,0
2017-01-20T02:03:29.425Z,0
2017-01-20T02:04:29.393Z,0
2017-01-20T02:05:29.379Z,0
2017-01-20T02:06:29.349Z,0
2017-01-20T02:07:29.317Z,0
2017-01-20T02:08:29.305Z,0
2017-01-20T02:09:29.268Z,0
2017-01-20T02:10:29.240Z,0
2017-01-20T02:11:29.209Z,0
2017-01-20T02:12:29.615Z,0
2017-01-20T02:13:29.166Z,0
2017-01-20T02:14:29.141Z,0
2017-01-20T02:15:29.108Z,0
2017-01-20T02:16:29.086Z,0
2017-01-20T02:17:29.083Z,0
2017-01-20T02:18:29.029Z,0
2017-01-20T02:19:29.004Z,0
2017-01-20T02:20:28.977Z,0
2017-01-20T02:21:28.958Z,0
2017-01-20T02:22:29.321Z,0
2017-01-20T02:23:28.900Z,0
2017-01-20T02:24:28.873Z,0
2017-01-20T02:25:28.854Z,0
2017-01-20T02:26:28.821Z,0
2017-01-20T02:27:28.796Z,0
2017-01-20T02:28:28.769Z,0
2017-01-20T02:29:28.761Z,0
2017-01-20T02:30:28.721Z,0
2017-01-20T02:31:28.686Z,0
2017-01-20T02:32:28.676Z,0
2017-01-20T02:33:28.674Z,0
2017-01-20T02:34:28.625Z,0
2017-01-20T02:35:28.588Z,0
2017-01-20T02:36:28.561Z,0
2017-01-20T02:37:29.270Z,0
2017-01-20T02:38:28.514Z,0
2017-01-20T02:39:28.485Z,0
2017-01-20T02:40:28.460Z,0
2017-01-20T02:41:28.423Z,0
2017-01-20T02:42:28.400Z,0
2017-01-20T02:43:28.377Z,0
2017-01-20T02:44:28.349Z,0
2017-01-20T02:45:28.321Z,0
2017-01-20T02:46:28.299Z,0
2017-01-20T02:47:28.273Z,0
2017-01-20T02:48:28.244Z,0
2017-01-20T02:49:28.216Z,0
2017-01-20T02:50:28.199Z,0
2017-01-20T02:51:28.190Z,0
2017-01-20T02:52:28.141Z,0
2017-01-20T02:53:28.138Z,0
2017-01-20T02:54:28.091Z,0
2017-01-20T02:55:28.067Z,0
2017-01-20T02:56:28.430Z,0
2017-01-20T02:57:28.004Z,0
2017-01-20T02:58:27.999Z,0
2017-01-20T02:59:27.963Z,0
2017-01-20T03:00:27.934Z,0
2017-01-20T03:01:27.897Z,0
2017-01-20T03:02:27.875Z,0
2017-01-20T03:03:27.843Z,0
2017-01-20T03:04:28.214Z,0
2017-01-20T03:05:27.846Z,0
2017-01-20T03:06:27.763Z,0
2017-01-20T03:07:27.734Z,0
2017-01-20T03:08:28.124Z,0
2017-01-20T03:09:27.686Z,0
2017-01-20T03:10:27.661Z,0
2017-01-20T03:11:27.631Z,0
2017-01-20T03:12:27.611Z,0
2017-01-20T03:13:27.580Z,0
2017-01-20T03:14:27.566Z,0
2017-01-20T03:15:27.580Z,0
2017-01-20T03:16:27.514Z,0
2017-01-20T03:17:27.473Z,0
2017-01-20T03:18:27.451Z,0
2017-01-20T03:19:27.422Z,0
2017-01-20T03:20:27.795Z,0
2017-01-20T03:21:27.388Z,0
2017-01-20T03:22:27.350Z,0
2017-01-20T03:23:27.319Z,0
2017-01-20T03:24:27.293Z,0
2017-01-20T03:25:27.274Z,0
2017-01-20T03:26:27.288Z,0
2017-01-20T03:27:27.214Z,0
2017-01-20T03:28:27.185Z,0
2017-01-20T03:29:27.214Z,0
2017-01-20T03:30:27.550Z,0
2017-01-20T03:31:27.103Z,0
2017-01-20T03:32:27.080Z,0
2017-01-20T03:33:27.054Z,0
2017-01-20T03:34:27.037Z,0
2017-01-20T03:35:27.010Z,0
2017-01-20T03:36:26.975Z,0
2017-01-20T03:37:26.951Z,0
2017-01-20T03:38:27.319Z,0
2017-01-20T03:39:26.897Z,0
2017-01-20T03:40:26.876Z,0
2017-01-20T03:41:26.891Z,0
2017-01-20T03:42:26.820Z,0
2017-01-20T03:43:26.796Z,0
2017-01-20T03:44:26.768Z,0
2017-01-20T03:45:26.748Z,0
2017-01-20T03:46:26.713Z,0
2017-01-20T03:47:26.691Z,0
2017-01-20T03:48:26.668Z,0
2017-01-20T03:49:26.633Z,0
2017-01-20T03:50:26.634Z,0
2017-01-20T03:51:26.598Z,0
2017-01-20T03:52:26.568Z,0
2017-01-20T03:53:26.530Z,0
2017-01-20T03:54:26.551Z,0
2017-01-20T03:55:26.482Z,0
2017-01-20T03:56:26.463Z,0
2017-01-20T03:57:26.426Z,0
2017-01-20T03:58:26.399Z,0
2017-01-20T03:59:26.374Z,0
2017-01-20T04:00:26.421Z,0
2017-01-20T04:01:26.320Z,0
2017-01-20T04:02:26.298Z,0
2017-01-20T04:03:26.277Z,0
2017-01-20T04:04:26.250Z,0
2017-01-20T04:05:26.217Z,0
2017-01-20T04:06:26.199Z,0
2017-01-20T04:07:26.163Z,0
2017-01-20T04:08:26.144Z,0
2017-01-20T04:09:26.142Z,0
2017-01-20T04:10:26.091Z,0
2017-01-20T04:11:26.060Z,0
2017-01-20T04:12:26.034Z,0
2017-01-20T04:13:26.037Z,0
2017-01-20T04:14:25.980Z,0
2017-01-20T04:15:25.958Z,0
2017-01-20T04:16:25.929Z,0
2017-01-20T04:17:25.901Z,0
2017-01-20T04:18:25.878Z,0
2017-01-20T04:19:25.849Z,0
2017-01-20T04:20:25.822Z,0
2017-01-20T04:21:25.796Z,0
2017-01-20T04:22:25.775Z,0
2017-01-20T04:23:25.745Z,0
2017-01-20T04:24:26.136Z,0
2017-01-20T04:25:25.705Z,0
2017-01-20T04:26:25.666Z,0
2017-01-20T04:27:25.632Z,0
2017-01-20T04:28:25.610Z,0
2017-01-20T04:29:25.584Z,0
2017-01-20T04:30:25.556Z,0
2017-01-20T04:31:25.530Z,0
2017-01-20T04:32:25.516Z,0
2017-01-20T04:33:25.479Z,0
2017-01-20T04:34:25.453Z,0
2017-01-20T04:35:25.423Z,0
2017-01-20T04:36:25.397Z,0
2017-01-20T04:37:25.373Z,0
2017-01-20T04:38:25.347Z,0
2017-01-20T04:39:25.322Z,0
2017-01-20T04:40:25.694Z,0
2017-01-20T04:41:25.275Z,0
2017-01-20T04:42:25.292Z,0
2017-01-20T04:43:25.213Z,0
2017-01-20T04:44:25.190Z,0
2017-01-20T04:45:25.161Z,0
2017-01-20T04:46:25.140Z,0
2017-01-20T04:47:25.104Z,0
2017-01-20T04:48:25.081Z,0
2017-01-20T04:49:25.051Z,0
2017-01-20T04:50:25.027Z,0
2017-01-20T04:51:25.394Z,0
2017-01-20T04:52:24.978Z,0
2017-01-20T04:53:24.951Z,0
2017-01-20T04:54:24.923Z,0
2017-01-20T04:55:24.946Z,0
2017-01-20T04:56:24.868Z,0
2017-01-20T04:57:24.841Z,0
2017-01-20T04:58:24.816Z,0
2017-01-20T04:59:24.787Z,0
2017-01-20T05:00:24.773Z,0
2017-01-20T05:01:24.736Z,0
2017-01-20T05:02:24.706Z,0
2017-01-20T05:03:24.688Z,0
2017-01-20T05:04:24.682Z,0
2017-01-20T05:05:24.631Z,0
2017-01-20T05:06:24.607Z,0
2017-01-20T05:07:24.582Z,0
2017-01-20T05:08:24.556Z,0
2017-01-20T05:09:24.531Z,0
2017-01-20T05:10:24.518Z,0
2017-01-20T05:11:24.470Z,0
2017-01-20T05:12:24.448Z,0
2017-01-20T05:13:24.419Z,0
2017-01-20T05:14:24.387Z,0
2017-01-20T05:15:24.359Z,0
2017-01-20T05:16:24.337Z,0
2017-01-20T05:17:24.311Z,0
2017-01-20T05:18:24.282Z,0
2017-01-20T05:19:24.257Z,0
2017-01-20T05:20:24.235Z,0
2017-01-20T05:21:24.205Z,0
2017-01-20T05:22:24.206Z,0
2017-01-20T05:23:24.184Z,0
2017-01-20T05:24:24.529Z,0
2017-01-20T05:25:24.100Z,0
2017-01-20T05:26:24.069Z,0
2017-01-20T05:27:24.081Z,0
2017-01-20T05:28:24.015Z,0
2017-01-20T05:29:23.991Z,0
2017-01-20T05:30:23.970Z,0
2017-01-20T05:31:23.938Z,0
2017-01-20T05:32:23.910Z,0
2017-01-20T05:33:23.911Z,0
2017-01-20T05:34:23.856Z,0
2017-01-20T05:35:23.883Z,0
2017-01-20T05:36:23.809Z,0
2017-01-20T05:37:23.782Z,0
2017-01-20T05:38:23.755Z,0
2017-01-20T05:39:23.734Z,0
2017-01-20T05:40:23.698Z,0
2017-01-20T05:41:23.671Z,0
2017-01-20T05:42:23.654Z,0
2017-01-20T05:43:23.622Z,0
2017-01-20T05:44:23.597Z,0
2017-01-20T05:45:23.574Z,0
2017-01-20T05:46:23.559Z,0
2017-01-20T05:47:23.515Z,0
2017-01-20T05:48:23.493Z,0
2017-01-20T05:49:23.674Z,0
2017-01-20T05:50:23.829Z,0
2017-01-20T05:51:23.418Z,0
2017-01-20T05:52:23.385Z,0
2017-01-20T05:53:23.355Z,0
2017-01-20T05:54:23.327Z,0
2017-01-20T05:55:23.304Z,0
2017-01-20T05:56:23.281Z,0
2017-01-20T05:57:23.247Z,0
2017-01-20T05:58:23.220Z,0
2017-01-20T05:59:23.198Z,0
2017-01-20T06:00:23.687Z,0
2017-01-20T06:01:23.165Z,0
2017-01-20T06:02:23.117Z,0
2017-01-20T06:03:23.090Z,0
2017-01-20T06:04:23.067Z,0
2017-01-20T06:05:23.046Z,0
2017-01-20T06:06:23.014Z,0
2017-01-20T06:07:22.992Z,0
2017-01-20T06:08:22.959Z,0
2017-01-20T06:09:22.934Z,0
2017-01-20T06:10:22.901Z,0
2017-01-20T06:11:22.877Z,0
2017-01-20T06:12:23.277Z,0
2017-01-20T06:13:22.825Z,0
2017-01-20T06:14:22.794Z,0
2017-01-20T06:15:22.770Z,0
2017-01-20T06:16:22.742Z,0
2017-01-20T06:17:22.713Z,0
2017-01-20T06:18:22.688Z,0
2017-01-20T06:19:22.661Z,0
2017-01-20T06:20:22.639Z,0
2017-01-20T06:21:22.607Z,0
2017-01-20T06:22:22.585Z,0
2017-01-20T06:23:22.607Z,0
2017-01-20T06:24:22.529Z,0
2017-01-20T06:25:22.499Z,0
2017-01-20T06:26:22.495Z,0
2017-01-20T06:27:22.447Z,0
2017-01-20T06:28:22.439Z,0
2017-01-20T06:29:22.410Z,0
2017-01-20T06:30:22.365Z,0
2017-01-20T06:31:22.391Z,0
2017-01-20T06:32:22.319Z,0
2017-01-20T06:33:22.314Z,0
2017-01-20T06:34:22.305Z,0
2017-01-20T06:35:22.239Z,0
2017-01-20T06:36:22.214Z,0
2017-01-20T06:37:22.183Z,0
2017-01-20T06:38:22.153Z,0
2017-01-20T06:39:22.130Z,0
2017-01-20T06:40:22.100Z,0
2017-01-20T06:41:22.475Z,0
2017-01-20T06:42:22.055Z,0
2017-01-20T06:43:22.020Z,0
2017-01-20T06:44:22.045Z,0
2017-01-20T06:45:21.976Z,0
2017-01-20T06:46:21.941Z,0
2017-01-20T06:47:21.917Z,0
2017-01-20T06:48:21.932Z,4
2017-01-20T06:49:21.872Z,0
2017-01-20T06:50:21.862Z,0
2017-01-20T06:51:21.815Z,4
2017-01-20T06:52:21.784Z,0
2017-01-20T06:53:21.792Z,4
2017-01-20T06:54:21.728Z,4
2017-01-20T06:55:21.700Z,4
2017-01-20T06:56:21.672Z,4
2017-01-20T06:57:21.650Z,4
2017-01-20T06:58:21.628Z,8
2017-01-20T06:59:21.606Z,8
2017-01-20T07:00:21.574Z,12
2017-01-20T07:01:21.543Z,12
2017-01-20T07:02:21.511Z,12
2017-01-20T07:03:21.483Z,16
2017-01-20T07:04:21.460Z,20
2017-01-20T07:05:21.427Z,24
2017-01-20T07:06:21.401Z,28
2017-01-20T07:07:21.379Z,32
2017-01-20T07:08:21.356Z,36
2017-01-20T07:09:21.328Z,40
2017-01-20T07:10:21.300Z,48
2017-01-20T07:11:21.271Z,52
2017-01-20T07:12:21.247Z,64
2017-01-20T07:13:21.249Z,72
2017-01-20T07:14:21.203Z,76
2017-01-20T07:15:21.169Z,88
2017-01-20T07:16:21.136Z,96
2017-01-20T07:17:21.115Z,104
2017-01-20T07:18:21.081Z,116
2017-01-20T07:19:21.062Z,128
2017-01-20T07:20:21.057Z,144
2017-01-20T07:21:21.454Z,152
2017-01-20T07:22:21.005Z,168
2017-01-20T07:23:20.954Z,180
2017-01-20T07:24:20.928Z,196
2017-01-20T07:25:20.898Z,212
2017-01-20T07:26:21.270Z,228
2017-01-20T07:27:20.846Z,248
2017-01-20T07:28:20.815Z,264
2017-01-20T07:29:20.788Z,284
2017-01-20T07:30:20.768Z,300
2017-01-20T07:31:20.738Z,320
2017-01-20T07:32:20.713Z,340
2017-01-20T07:33:20.687Z,364
2017-01-20T07:34:21.049Z,380
2017-01-20T07:35:20.655Z,404
2017-01-20T07:36:20.603Z,424
2017-01-20T07:37:20.976Z,448
2017-01-20T07:38:20.545Z,472
2017-01-20T07:39:20.520Z,496
2017-01-20T07:40:20.525Z,516
2017-01-20T07:41:20.469Z,540
2017-01-20T07:42:20.438Z,572
2017-01-20T07:43:20.432Z,600
2017-01-20T07:44:20.393Z,632
2017-01-20T07:45:20.413Z,668
2017-01-20T07:46:20.339Z,708
2017-01-20T07:47:20.388Z,744
2017-01-20T07:48:20.287Z,784
2017-01-20T07:49:20.454Z,824
2017-01-20T07:50:20.237Z,864
2017-01-20T07:51:20.210Z,900
2017-01-20T07:52:20.177Z,936
2017-01-20T07:53:20.155Z,972
2017-01-20T07:54:20.126Z,1000
2017-01-20T07:55:20.104Z,1028
2017-01-20T07:56:20.078Z,1052
2017-01-20T07:57:20.044Z,1084
2017-01-20T07:58:20.017Z,1112
2017-01-20T07:59:19.989Z,1144
2017-01-20T08:00:19.964Z,1156
2017-01-20T08:01:19.936Z,1164
2017-01-20T08:02:19.912Z,1168
2017-01-20T08:03:19.915Z,1168
2017-01-20T08:04:19.856Z,1164
2017-01-20T08:05:19.837Z,1148
2017-01-20T08:06:19.810Z,1136
2017-01-20T08:07:20.177Z,1136
2017-01-20T08:08:19.756Z,1136
2017-01-20T08:09:19.732Z,1148
2017-01-20T08:10:19.750Z,1160
2017-01-20T08:11:19.702Z,1168
2017-01-20T08:12:19.671Z,1184
2017-01-20T08:13:19.624Z,1200
2017-01-20T08:14:19.599Z,1224
2017-01-20T08:15:19.574Z,1248
2017-01-20T08:16:19.557Z,1280
2017-01-20T08:17:19.529Z,1324
2017-01-20T08:18:19.513Z,1352
2017-01-20T08:19:19.473Z,1384
2017-01-20T08:20:19.454Z,1416
2017-01-20T08:21:19.417Z,1436
2017-01-20T08:22:19.398Z,1464
2017-01-20T08:23:19.360Z,1508
2017-01-20T08:24:19.340Z,1576
2017-01-20T08:25:19.305Z,1668
2017-01-20T08:26:19.285Z,1756
2017-01-20T08:27:19.264Z,1840
2017-01-20T08:28:19.227Z,1932
2017-01-20T08:29:19.201Z,2040
2017-01-20T08:30:19.185Z,2160
2017-01-20T08:31:19.152Z,2264
2017-01-20T08:32:19.172Z,2364
2017-01-20T08:33:19.101Z,2448
2017-01-20T08:34:19.106Z,2492
2017-01-20T08:35:19.053Z,2540
2017-01-20T08:36:19.028Z,2596
2017-01-20T08:37:18.998Z,2660
2017-01-20T08:38:18.976Z,2720
2017-01-20T08:39:18.945Z,2808
2017-01-20T08:40:18.922Z,2888
2017-01-20T08:41:18.905Z,3004
2017-01-20T08:42:18.874Z,3116
2017-01-20T08:43:18.851Z,3220
2017-01-20T08:44:19.216Z,3340
2017-01-20T08:45:18.803Z,3444
2017-01-20T08:46:18.764Z,3516
2017-01-20T08:47:18.744Z,3564
2017-01-20T08:48:18.725Z,3616
2017-01-20T08:49:18.716Z,3652
2017-01-20T08:50:18.668Z,3632
2017-01-20T08:51:18.644Z,3560
2017-01-20T08:52:18.619Z,3500
2017-01-20T08:53:18.594Z,3500
2017-01-20T08:54:18.569Z,3576
2017-01-20T08:55:18.543Z,3696
2017-01-20T08:56:18.910Z,3812
2017-01-20T08:57:18.489Z,3956
2017-01-20T08:58:18.466Z,4088
2017-01-20T08:59:18.442Z,4200
2017-01-20T09:00:18.422Z,4300
2017-01-20T09:01:18.399Z,4440
2017-01-20T09:02:18.373Z,4604
2017-01-20T09:03:18.355Z,4760
2017-01-20T09:04:18.334Z,4876
2017-01-20T09:05:18.325Z,4952
2017-01-20T09:06:18.289Z,4980
2017-01-20T09:07:18.254Z,5024
2017-01-20T09:08:18.225Z,5112
2017-01-20T09:09:18.205Z,5204
2017-01-20T09:10:18.181Z,5284
2017-01-20T09:11:18.558Z,5344
2017-01-20T09:12:18.136Z,5432
2017-01-20T09:13:18.503Z,5536
2017-01-20T09:14:18.084Z,5620
2017-01-20T09:15:18.074Z,5640
2017-01-20T09:16:18.058Z,5628
2017-01-20T09:17:18.015Z,5568
2017-01-20T09:18:17.992Z,5416
2017-01-20T09:19:17.965Z,5256
2017-01-20T09:20:17.941Z,5120
2017-01-20T09:21:17.923Z,5044
2017-01-20T09:22:17.944Z,5112
2017-01-20T09:23:17.893Z,5256
2017-01-20T09:24:17.855Z,5364
2017-01-20T09:25:17.875Z,5404
2017-01-20T09:26:18.198Z,5408
2017-01-20T09:27:17.783Z,5372
2017-01-20T09:28:17.787Z,5348
2017-01-20T09:29:17.728Z,5316
2017-01-20T09:30:17.733Z,5372
2017-01-20T09:31:17.687Z,5424
2017-01-20T09:32:17.673Z,5396
2017-01-20T09:33:17.643Z,5368
2017-01-20T09:34:17.629Z,5176
2017-01-20T09:35:17.599Z,4892
2017-01-20T09:36:17.582Z,4756
2017-01-20T09:37:17.552Z,4792
2017-01-20T09:38:17.529Z,4844
2017-01-20T09:39:17.511Z,4900
2017-01-20T09:40:17.483Z,5028
2017-01-20T09:41:17.462Z,5044
2017-01-20T09:42:17.439Z,5072
2017-01-20T09:43:17.418Z,5032
2017-01-20T09:44:17.442Z,5096
2017-01-20T09:45:17.380Z,5032
2017-01-20T09:46:17.350Z,5084
2017-01-20T09:47:17.335Z,5044
2017-01-20T09:48:17.301Z,5072
2017-01-20T09:49:17.920Z,5124
2017-01-20T09:50:17.256Z,5188
2017-01-20T09:51:17.635Z,5292
2017-01-20T09:52:17.215Z,5396
2017-01-20T09:53:17.215Z,5616
2017-01-20T09:54:17.181Z,5540
2017-01-20T09:55:17.147Z,5484
2017-01-20T09:56:17.131Z,5560
2017-01-20T09:57:17.161Z,5540
2017-01-20T09:58:17.076Z,5608
2017-01-20T09:59:17.062Z,5768
2017-01-20T10:00:17.061Z,5960
2017-01-20T10:01:17.011Z,7164
2017-01-20T10:02:17.009Z,8184
2017-01-20T10:03:16.969Z,8288
2017-01-20T10:04:16.942Z,8612
2017-01-20T10:05:16.923Z,8916
2017-01-20T10:06:17.333Z,8548
2017-01-20T10:07:16.885Z,8632
2017-01-20T10:08:16.861Z,8920
2017-01-20T10:09:16.835Z,8276
2017-01-20T10:10:16.830Z,7676
2017-01-20T10:11:16.795Z,7360
2017-01-20T10:12:16.782Z,7308
2017-01-20T10:13:16.758Z,7440
2017-01-20T10:14:16.734Z,8256
2017-01-20T10:15:16.710Z,9288
2017-01-20T10:16:16.738Z,9796
2017-01-20T10:17:16.669Z,10108
2017-01-20T10:18:16.649Z,9488
2017-01-20T10:19:16.646Z,9456
2017-01-20T10:20:16.610Z,10384
2017-01-20T10:21:16.593Z,11072
2017-01-20T10:22:16.582Z,10508
2017-01-20T10:23:16.561Z,10528
2017-01-20T10:24:16.541Z,9996
2017-01-20T10:25:16.517Z,10240
2017-01-20T10:26:16.501Z,10340
2017-01-20T10:27:16.477Z,10656
2017-01-20T10:28:16.462Z,10520
2017-01-20T10:29:16.448Z,9296
2017-01-20T10:30:16.434Z,10896
2017-01-20T10:31:16.402Z,12428
2017-01-20T10:32:16.391Z,10944
2017-01-20T10:33:16.381Z,9772
2017-01-20T10:34:16.358Z,9756
2017-01-20T10:35:16.339Z,9424
2017-01-20T10:36:16.321Z,9020
2017-01-20T10:37:16.732Z,9084
2017-01-20T10:38:16.288Z,10456
2017-01-20T10:39:16.273Z,12540
2017-01-20T10:40:16.253Z,14012
2017-01-20T10:41:16.239Z,15676
2017-01-20T10:42:16.229Z,16896
2017-01-20T10:43:16.207Z,15244
2017-01-20T10:44:16.190Z,12588
2017-01-20T10:45:16.176Z,10916
2017-01-20T10:46:16.154Z,11420
2017-01-20T10:47:16.161Z,12016
2017-01-20T10:48:16.126Z,13280
2017-01-20T10:49:16.106Z,14304
2017-01-20T10:50:16.090Z,14496
2017-01-20T10:51:16.124Z,15168
2017-01-20T10:52:16.063Z,14976
2017-01-20T10:53:16.043Z,14700
2017-01-20T10:54:16.494Z,16224
2017-01-20T10:55:16.423Z,17728
2017-01-20T10:56:16.003Z,16896
2017-01-20T10:57:15.989Z,13868
2017-01-20T10:58:15.975Z,11448
2017-01-20T10:59:15.967Z,11776
2017-01-20T11:00:15.939Z,11712
2017-01-20T11:01:15.924Z,9908
2017-01-20T11:02:16.307Z,10420
2017-01-20T11:03:15.925Z,11732
2017-01-20T11:04:16.310Z,14368
2017-01-20T11:05:15.866Z,13704
2017-01-20T11:06:15.857Z,15584
2017-01-20T11:07:15.834Z,16000
2017-01-20T11:08:15.823Z,16064
2017-01-20T11:09:15.803Z,16096
2017-01-20T11:10:15.792Z,17376
2017-01-20T11:11:15.807Z,14948
2017-01-20T11:12:15.767Z,13216
2017-01-20T11:13:15.760Z,13504
2017-01-20T11:14:15.739Z,11528
2017-01-20T11:15:15.754Z,12868
2017-01-20T11:16:15.713Z,14152
2017-01-20T11:17:16.105Z,14804
2017-01-20T11:18:15.681Z,14984
2017-01-20T11:19:15.675Z,16708
2017-01-20T11:20:15.655Z,16444
2017-01-20T11:21:16.070Z,15820
2017-01-20T11:22:15.630Z,17052
2017-01-20T11:23:15.631Z,13128
2017-01-20T11:24:15.612Z,13160
2017-01-20T11:25:15.615Z,12692
2017-01-20T11:26:15.654Z,12252
2017-01-20T11:27:15.575Z,12200
2017-01-20T11:28:15.563Z,10652
2017-01-20T11:29:15.553Z,12444
2017-01-20T11:30:15.531Z,13132
2017-01-20T11:31:15.550Z,15080
2017-01-20T11:32:15.510Z,15800
2017-01-20T11:33:15.551Z,18976
2017-01-20T11:34:15.567Z,17316
2017-01-20T11:35:15.485Z,17108
2017-01-20T11:36:15.468Z,17056
2017-01-20T11:37:15.451Z,16992
2017-01-20T11:38:15.432Z,15096
2017-01-20T11:39:15.428Z,14840
2017-01-20T11:40:15.417Z,16416
2017-01-20T11:41:15.458Z,17856
2017-01-20T11:42:15.384Z,17504
2017-01-20T11:43:15.379Z,18720
2017-01-20T11:44:15.370Z,15916
2017-01-20T11:45:15.757Z,9952
2017-01-20T11:46:15.345Z,7728
2017-01-20T11:47:15.334Z,6844
2017-01-20T11:48:15.312Z,6440
2017-01-20T11:49:15.518Z,6344
2017-01-20T11:50:15.340Z,6208
2017-01-20T11:51:15.279Z,6004
2017-01-20T11:52:15.268Z,5868
2017-01-20T11:53:15.299Z,5668
2017-01-20T11:54:15.235Z,5684
2017-01-20T11:55:15.233Z,5544
2017-01-20T11:56:15.275Z,5572
2017-01-20T11:57:15.193Z,5604
2017-01-20T11:58:15.193Z,5576
2017-01-20T11:59:15.171Z,5640
2017-01-20T12:00:15.253Z,5652
2017-01-20T12:01:15.147Z,5588
2017-01-20T12:02:15.133Z,5988
2017-01-20T12:03:15.111Z,5840
2017-01-20T12:04:15.094Z,5736
2017-01-20T12:05:15.125Z,5756
2017-01-20T12:06:15.073Z,5708
2017-01-20T12:07:15.105Z,6008
2017-01-20T12:08:15.111Z,6032
2017-01-20T12:09:15.025Z,6256
2017-01-20T12:10:15.001Z,6436
2017-01-20T12:11:15.383Z,6580
2017-01-20T12:12:15.383Z,6844
2017-01-20T12:13:14.954Z,7796
2017-01-20T12:14:14.950Z,10376
2017-01-20T12:15:14.925Z,14352
2017-01-20T12:16:14.911Z,14700
2017-01-20T12:17:14.922Z,16672
2017-01-20T12:18:14.877Z,21120
2017-01-20T12:19:14.889Z,22592
2017-01-20T12:20:14.851Z,20800
2017-01-20T12:21:14.835Z,16024
2017-01-20T12:22:15.214Z,12384
2017-01-20T12:23:14.809Z,16576
2017-01-20T12:24:14.842Z,16480
2017-01-20T12:25:14.781Z,15032
2017-01-20T12:26:14.760Z,16576
2017-01-20T12:27:14.748Z,18016
2017-01-20T12:28:14.745Z,16960
2017-01-20T12:29:14.720Z,16288
2017-01-20T12:30:14.729Z,15292
2017-01-20T12:31:14.696Z,11596
2017-01-20T12:32:14.688Z,13244
2017-01-20T12:33:14.698Z,10264
2017-01-20T12:34:14.663Z,12092
2017-01-20T12:35:14.652Z,13968
2017-01-20T12:36:14.636Z,14816
2017-01-20T12:37:14.641Z,15584
2017-01-20T12:38:15.024Z,15712
2017-01-20T12:39:14.609Z,15776
2017-01-20T12:40:14.998Z,14444
2017-01-20T12:41:15.412Z,12036
2017-01-20T12:42:14.598Z,12748
2017-01-20T12:43:14.559Z,16736
2017-01-20T12:44:14.551Z,18304
2017-01-20T12:45:14.543Z,17248
2017-01-20T12:46:14.540Z,18176
2017-01-20T12:47:14.525Z,15360
2017-01-20T12:48:14.506Z,17600
2017-01-20T12:49:14.901Z,16416
2017-01-20T12:50:14.490Z,13960
2017-01-20T12:51:14.481Z,15328
2017-01-20T12:52:14.466Z,14240
2017-01-20T12:53:14.462Z,13504
2017-01-20T12:54:14.472Z,13248
2017-01-20T12:55:14.437Z,15232
2017-01-20T12:56:14.434Z,17152
2017-01-20T12:57:14.417Z,18720
2017-01-20T12:58:14.423Z,19168
2017-01-20T12:59:14.823Z,18816
2017-01-20T13:00:14.396Z,18176
2017-01-20T13:01:14.388Z,19104
2017-01-20T13:02:14.775Z,18784
2017-01-20T13:03:14.367Z,19360
2017-01-20T13:04:14.360Z,19264
2017-01-20T13:05:14.354Z,19648
2017-01-20T13:06:14.347Z,17056
2017-01-20T13:07:14.340Z,17472
2017-01-20T13:08:14.329Z,18656
2017-01-20T13:09:14.358Z,21376
2017-01-20T13:10:14.355Z,21952
2017-01-20T13:11:14.319Z,21152
2017-01-20T13:12:14.310Z,20032
2017-01-20T13:13:14.305Z,19776
2017-01-20T13:14:14.292Z,18880
2017-01-20T13:15:14.286Z,18272
2017-01-20T13:16:14.280Z,18304
2017-01-20T13:17:14.271Z,18816
2017-01-20T13:18:14.274Z,18560
2017-01-20T13:19:14.313Z,17024
2017-01-20T13:20:14.258Z,17216
2017-01-20T13:21:14.263Z,17856
2017-01-20T13:22:14.248Z,12304
2017-01-20T13:23:14.248Z,12620
2017-01-20T13:24:14.238Z,11904
2017-01-20T13:25:14.226Z,12844
2017-01-20T13:26:14.221Z,12104
2017-01-20T13:27:14.219Z,13116
2017-01-20T13:28:14.220Z,11196
2017-01-20T13:29:14.255Z,10080
2017-01-20T13:30:14.205Z,11828
2017-01-20T13:31:14.218Z,13376
2017-01-20T13:32:14.198Z,13536
2017-01-20T13:33:14.185Z,14144
2017-01-20T13:34:14.177Z,15744
2017-01-20T13:35:14.173Z,16128
2017-01-20T13:36:14.169Z,16320
2017-01-20T13:37:14.176Z,16352
2017-01-20T13:38:14.158Z,15840
2017-01-20T13:39:14.153Z,16096
2017-01-20T13:40:14.143Z,15296
2017-01-20T13:41:14.136Z,14624
2017-01-20T13:42:14.132Z,13164
2017-01-20T13:43:14.532Z,10868
2017-01-20T13:44:14.513Z,10196
2017-01-20T13:45:14.142Z,10120
2017-01-20T13:46:14.107Z,9044
2017-01-20T13:47:14.103Z,9616
2017-01-20T13:48:14.110Z,11440
2017-01-20T13:49:14.504Z,12532
2017-01-20T13:50:14.086Z,14404
2017-01-20T13:51:14.090Z,14052
2017-01-20T13:52:14.081Z,14764
2017-01-20T13:53:14.072Z,16928
2017-01-20T13:54:14.064Z,16960
2017-01-20T13:55:14.455Z,16288
2017-01-20T13:56:14.056Z,15520